sensor_id;sensor_type;location;lat;lon;timestamp;pressure;altitude;pressure_sealevel;temperature;humidity
33422;BME280;19763;55.798;37.782;2023-05-01T00:02:20;149318.53;;;8.03;90.26
33422;BME280;19763;55.798;37.782;2023-05-01T00:04:46;149312.13;;;8.01;90.62
33422;BME280;19763;55.798;37.782;2023-05-01T00:07:12;149322.38;;;8.05;90.67
33422;BME280;19763;55.798;37.782;2023-05-01T00:09:37;149339.03;;;8.11;90.84
33422;BME280;19763;55.798;37.782;2023-05-01T00:12:03;149346.72;;;8.15;89.63
33422;BME280;19763;55.798;37.782;2023-05-01T00:14:29;149336.47;;;8.10;90.15
33422;BME280;19763;55.798;37.782;2023-05-01T00:16:55;149333.94;;;8.09;90.54
33422;BME280;19763;55.798;37.782;2023-05-01T00:19:20;149350.53;;;8.16;90.64
33422;BME280;19763;55.798;37.782;2023-05-01T00:21:46;149337.78;;;8.11;91.03
33422;BME280;19763;55.798;37.782;2023-05-01T00:24:14;149330.06;;;8.08;90.77
33422;BME280;19763;55.798;37.782;2023-05-01T00:26:41;149332.63;;;8.09;90.49
33422;BME280;19763;55.798;37.782;2023-05-01T00:29:06;149317.28;;;8.03;90.54
33422;BME280;19763;55.798;37.782;2023-05-01T00:31:33;149315.97;;;8.02;90.95
33422;BME280;19763;55.798;37.782;2023-05-01T00:33:58;149327.53;;;8.07;90.43
33422;BME280;19763;55.798;37.782;2023-05-01T00:36:24;149333.94;;;8.09;90.88
33422;BME280;19763;55.798;37.782;2023-05-01T00:38:49;149339.03;;;8.11;91.70
33422;BME280;19763;55.798;37.782;2023-05-01T00:41:15;149356.94;;;8.19;91.43
33422;BME280;19763;55.798;37.782;2023-05-01T00:43:41;149350.53;;;8.16;91.31
33422;BME280;19763;55.798;37.782;2023-05-01T00:46:07;149359.53;;;8.20;90.26
33422;BME280;19763;55.798;37.782;2023-05-01T00:48:34;149355.69;;;8.18;90.72
33422;BME280;19763;55.798;37.782;2023-05-01T00:51:00;149367.19;;;8.23;90.67
33422;BME280;19763;55.798;37.782;2023-05-01T00:53:29;149372.28;;;8.25;91.01
33422;BME280;19763;55.798;37.782;2023-05-01T00:55:56;149374.88;;;8.26;90.39
33422;BME280;19763;55.798;37.782;2023-05-01T00:58:22;149362.06;;;8.21;90.63
33422;BME280;19763;55.798;37.782;2023-05-01T01:00:48;149351.84;;;8.17;91.00
33422;BME280;19763;55.798;37.782;2023-05-01T01:03:14;149333.94;;;8.09;90.41
33422;BME280;19763;55.798;37.782;2023-05-01T01:06:06;149356.94;;;8.19;89.60
33422;BME280;19763;55.798;37.782;2023-05-01T01:08:45;149339.03;;;8.11;90.42
33422;BME280;19763;55.798;37.782;2023-05-01T01:11:22;149355.69;;;8.18;90.35
33422;BME280;19763;55.798;37.782;2023-05-01T01:13:55;149368.47;;;8.23;90.36
33422;BME280;19763;55.798;37.782;2023-05-01T01:18:56;149337.78;;;8.11;90.44
33422;BME280;19763;55.798;37.782;2023-05-01T01:21:37;149380.03;;;8.28;90.19
33422;BME280;19763;55.798;37.782;2023-05-01T01:32:54;149362.06;;;8.21;89.29
33422;BME280;19763;55.798;37.782;2023-05-01T01:35:25;149358.22;;;8.19;88.38
33422;BME280;19763;55.798;37.782;2023-05-01T01:40:24;149365.94;;;8.22;88.28
33422;BME280;19763;55.798;37.782;2023-05-01T01:43:05;149374.88;;;8.26;88.84
33422;BME280;19763;55.798;37.782;2023-05-01T01:45:46;149354.38;;;8.18;89.56
33422;BME280;19763;55.798;37.782;2023-05-01T01:48:16;149364.63;;;8.22;89.29
33422;BME280;19763;55.798;37.782;2023-05-01T01:50:45;149380.03;;;8.28;89.72
33422;BME280;19763;55.798;37.782;2023-05-01T01:53:15;149356.94;;;8.19;89.41
33422;BME280;19763;55.798;37.782;2023-05-01T01:55:43;149382.53;;;8.29;88.63
33422;BME280;19763;55.798;37.782;2023-05-01T01:58:10;149388.97;;;8.32;89.04
33422;BME280;19763;55.798;37.782;2023-05-01T02:00:39;149362.06;;;8.21;89.29
33422;BME280;19763;55.798;37.782;2023-05-01T02:03:10;149380.03;;;8.28;88.94
33422;BME280;19763;55.798;37.782;2023-05-01T02:05:38;149372.28;;;8.25;88.77
33422;BME280;19763;55.798;37.782;2023-05-01T02:08:05;149373.59;;;8.25;89.65
33422;BME280;19763;55.798;37.782;2023-05-01T02:10:34;149374.88;;;8.26;89.74
33422;BME280;19763;55.798;37.782;2023-05-01T02:13:01;149355.69;;;8.18;89.16
33422;BME280;19763;55.798;37.782;2023-05-01T02:15:28;149351.84;;;8.17;89.63
33422;BME280;19763;55.798;37.782;2023-05-01T02:17:55;149351.84;;;8.17;90.28
33422;BME280;19763;55.798;37.782;2023-05-01T02:20:21;149344.13;;;8.13;89.36
33422;BME280;19763;55.798;37.782;2023-05-01T02:22:48;149349.28;;;8.16;88.60
33422;BME280;19763;55.798;37.782;2023-05-01T02:25:15;149359.53;;;8.20;89.24
33422;BME280;19763;55.798;37.782;2023-05-01T02:27:51;149374.88;;;8.26;89.50
33422;BME280;19763;55.798;37.782;2023-05-01T02:30:20;149372.28;;;8.25;90.38
33422;BME280;19763;55.798;37.782;2023-05-01T02:32:45;149367.19;;;8.23;90.13
33422;BME280;19763;55.798;37.782;2023-05-01T02:35:11;149362.06;;;8.21;89.46
33422;BME280;19763;55.798;37.782;2023-05-01T02:37:37;149354.38;;;8.18;90.26
33422;BME280;19763;55.798;37.782;2023-05-01T02:40:03;149356.94;;;8.19;90.17
33422;BME280;19763;55.798;37.782;2023-05-01T02:42:31;149350.53;;;8.16;90.06
33422;BME280;19763;55.798;37.782;2023-05-01T02:45:01;149372.28;;;8.25;89.60
33422;BME280;19763;55.798;37.782;2023-05-01T02:47:31;149345.44;;;8.14;89.77
33422;BME280;19763;55.798;37.782;2023-05-01T02:49:59;149369.78;;;8.24;90.04
33422;BME280;19763;55.798;37.782;2023-05-01T02:52:25;149359.53;;;8.20;90.07
33422;BME280;19763;55.798;37.782;2023-05-01T02:54:51;149387.69;;;8.31;90.16
33422;BME280;19763;55.798;37.782;2023-05-01T02:57:17;149392.78;;;8.33;89.13
33422;BME280;19763;55.798;37.782;2023-05-01T02:59:45;149394.06;;;8.34;90.26
33422;BME280;19763;55.798;37.782;2023-05-01T03:02:10;149356.94;;;8.19;87.88
33422;BME280;19763;55.798;37.782;2023-05-01T03:04:36;149391.53;;;8.33;87.79
33422;BME280;19763;55.798;37.782;2023-05-01T03:07:01;149405.63;;;8.38;88.66
33422;BME280;19763;55.798;37.782;2023-05-01T03:09:29;149394.06;;;8.34;87.89
33422;BME280;19763;55.798;37.782;2023-05-01T03:11:56;149415.84;;;8.42;87.25
33422;BME280;19763;55.798;37.782;2023-05-01T03:14:22;149412.03;;;8.41;87.37
33422;BME280;19763;55.798;37.782;2023-05-01T03:16:48;149418.38;;;8.43;87.74
33422;BME280;19763;55.798;37.782;2023-05-01T03:19:14;149430.00;;;8.48;87.50
33422;BME280;19763;55.798;37.782;2023-05-01T03:21:39;149444.06;;;8.54;88.06
33422;BME280;19763;55.798;37.782;2023-05-01T03:24:05;149445.34;;;8.54;87.25
33422;BME280;19763;55.798;37.782;2023-05-01T03:26:31;149458.16;;;8.59;87.42
33422;BME280;19763;55.798;37.782;2023-05-01T03:28:57;149479.94;;;8.68;87.33
33422;BME280;19763;55.798;37.782;2023-05-01T03:31:23;149462.00;;;8.61;87.48
33422;BME280;19763;55.798;37.782;2023-05-01T03:33:48;149481.19;;;8.69;86.34
33422;BME280;19763;55.798;37.782;2023-05-01T03:36:15;149465.84;;;8.62;85.71
33422;BME280;19763;55.798;37.782;2023-05-01T03:38:41;149487.59;;;8.71;87.20
33422;BME280;19763;55.798;37.782;2023-05-01T03:41:07;149472.25;;;8.65;87.56
33422;BME280;19763;55.798;37.782;2023-05-01T03:43:32;149510.63;;;8.80;87.03
33422;BME280;19763;55.798;37.782;2023-05-01T03:45:58;149513.19;;;8.81;86.51
33422;BME280;19763;55.798;37.782;2023-05-01T03:48:24;149528.56;;;8.88;84.90
33422;BME280;19763;55.798;37.782;2023-05-01T03:50:50;149532.44;;;8.89;85.21
33422;BME280;19763;55.798;37.782;2023-05-01T03:53:16;149555.47;;;8.98;85.71
33422;BME280;19763;55.798;37.782;2023-05-01T03:55:42;149549.06;;;8.96;86.01
33422;BME280;19763;55.798;37.782;2023-05-01T03:58:08;149555.47;;;8.98;85.63
33422;BME280;19763;55.798;37.782;2023-05-01T04:00:35;149550.38;;;8.96;84.95
33422;BME280;19763;55.798;37.782;2023-05-01T04:03:02;149568.31;;;9.04;85.43
33422;BME280;19763;55.798;37.782;2023-05-01T04:05:28;149583.66;;;9.10;84.95
33422;BME280;19763;55.798;37.782;2023-05-01T04:07:55;149583.66;;;9.10;84.78
33422;BME280;19763;55.798;37.782;2023-05-01T04:10:21;149570.81;;;9.05;83.66
33422;BME280;19763;55.798;37.782;2023-05-01T04:12:46;149588.75;;;9.12;83.74
33422;BME280;19763;55.798;37.782;2023-05-01T04:15:12;149596.47;;;9.15;83.44
33422;BME280;19763;55.798;37.782;2023-05-01T04:17:38;149593.91;;;9.14;82.96
33422;BME280;19763;55.798;37.782;2023-05-01T04:20:04;149605.44;;;9.19;82.91
33422;BME280;19763;55.798;37.782;2023-05-01T04:22:31;149605.44;;;9.19;83.69
33422;BME280;19763;55.798;37.782;2023-05-01T04:24:57;149633.63;;;9.30;83.67
33422;BME280;19763;55.798;37.782;2023-05-01T04:27:22;149641.28;;;9.33;84.65
33422;BME280;19763;55.798;37.782;2023-05-01T04:29:49;149654.13;;;9.38;84.47
33422;BME280;19763;55.798;37.782;2023-05-01T04:32:15;149638.75;;;9.32;84.03
33422;BME280;19763;55.798;37.782;2023-05-01T04:34:41;149647.72;;;9.36;83.88
33422;BME280;19763;55.798;37.782;2023-05-01T04:37:08;149636.19;;;9.31;83.68
33422;BME280;19763;55.798;37.782;2023-05-01T04:39:34;149654.13;;;9.38;84.77
33422;BME280;19763;55.798;37.782;2023-05-01T04:42:01;149659.22;;;9.40;84.57
33422;BME280;19763;55.798;37.782;2023-05-01T04:44:27;149659.22;;;9.40;85.56
33422;BME280;19763;55.798;37.782;2023-05-01T04:46:52;149674.63;;;9.46;84.49
33422;BME280;19763;55.798;37.782;2023-05-01T04:49:18;149677.16;;;9.47;83.34
33422;BME280;19763;55.798;37.782;2023-05-01T04:51:44;149632.34;;;9.29;83.04
33422;BME280;19763;55.798;37.782;2023-05-01T04:54:10;149650.28;;;9.37;83.27
33422;BME280;19763;55.798;37.782;2023-05-01T04:56:36;149659.22;;;9.40;83.49
33422;BME280;19763;55.798;37.782;2023-05-01T04:59:01;149673.31;;;9.46;83.90
33422;BME280;19763;55.798;37.782;2023-05-01T05:01:27;149687.41;;;9.52;83.86
33422;BME280;19763;55.798;37.782;2023-05-01T05:03:52;149695.09;;;9.55;83.23
33422;BME280;19763;55.798;37.782;2023-05-01T05:06:18;149698.94;;;9.56;84.29
33422;BME280;19763;55.798;37.782;2023-05-01T05:08:44;149700.25;;;9.57;83.11
33422;BME280;19763;55.798;37.782;2023-05-01T05:11:09;149665.63;;;9.43;83.18
33422;BME280;19763;55.798;37.782;2023-05-01T05:13:35;149670.78;;;9.45;83.08
33422;BME280;19763;55.798;37.782;2023-05-01T05:16:01;149690.00;;;9.53;82.20
33422;BME280;19763;55.798;37.782;2023-05-01T05:18:27;149666.91;;;9.43;84.96
33422;BME280;19763;55.798;37.782;2023-05-01T05:20:52;149686.16;;;9.51;83.65
33422;BME280;19763;55.798;37.782;2023-05-01T05:23:18;149700.25;;;9.57;84.21
33422;BME280;19763;55.798;37.782;2023-05-01T05:25:43;149707.94;;;9.60;84.08
33422;BME280;19763;55.798;37.782;2023-05-01T05:28:09;149711.78;;;9.61;83.21
33422;BME280;19763;55.798;37.782;2023-05-01T05:30:35;149718.19;;;9.64;83.58
33422;BME280;19763;55.798;37.782;2023-05-01T05:33:01;149734.88;;;9.71;83.34
33422;BME280;19763;55.798;37.782;2023-05-01T05:35:27;149741.22;;;9.73;83.66
33422;BME280;19763;55.798;37.782;2023-05-01T05:37:52;149720.75;;;9.65;84.17
33422;BME280;19763;55.798;37.782;2023-05-01T05:40:18;149733.56;;;9.70;83.91
33422;BME280;19763;55.798;37.782;2023-05-01T05:42:44;149748.97;;;9.76;83.93
33422;BME280;19763;55.798;37.782;2023-05-01T05:45:10;149757.91;;;9.80;83.71
33422;BME280;19763;55.798;37.782;2023-05-01T05:47:36;149720.75;;;9.65;83.93
33422;BME280;19763;55.798;37.782;2023-05-01T05:50:02;149731.03;;;9.69;83.25
33422;BME280;19763;55.798;37.782;2023-05-01T05:52:28;149760.50;;;9.81;83.50
33422;BME280;19763;55.798;37.782;2023-05-01T05:54:54;149777.16;;;9.88;82.92
33422;BME280;19763;55.798;37.782;2023-05-01T05:57:19;149787.38;;;9.92;82.23
33422;BME280;19763;55.798;37.782;2023-05-01T05:59:45;149793.78;;;9.94;81.82
33422;BME280;19763;55.798;37.782;2023-05-01T06:02:11;149797.63;;;9.96;83.36
33422;BME280;19763;55.798;37.782;2023-05-01T06:04:36;149807.88;;;10.00;82.26
33422;BME280;19763;55.798;37.782;2023-05-01T06:07:02;149788.69;;;9.92;81.91
33422;BME280;19763;55.798;37.782;2023-05-01T06:09:28;149813.03;;;10.02;81.69
33422;BME280;19763;55.798;37.782;2023-05-01T06:11:53;149824.56;;;10.07;82.66
33422;BME280;19763;55.798;37.782;2023-05-01T06:14:19;149815.56;;;10.03;81.99
33422;BME280;19763;55.798;37.782;2023-05-01T06:16:45;149792.53;;;9.94;80.73
33422;BME280;19763;55.798;37.782;2023-05-01T06:19:11;149788.69;;;9.92;80.11
33422;BME280;19763;55.798;37.782;2023-05-01T06:21:37;149805.31;;;9.99;80.64
33422;BME280;19763;55.798;37.782;2023-05-01T06:24:02;149760.50;;;9.81;80.51
33422;BME280;19763;55.798;37.782;2023-05-01T06:26:28;149801.47;;;9.97;80.63
33422;BME280;19763;55.798;37.782;2023-05-01T06:28:54;149774.59;;;9.87;82.43
33422;BME280;19763;55.798;37.782;2023-05-01T06:31:20;149815.56;;;10.03;81.94
33422;BME280;19763;55.798;37.782;2023-05-01T06:33:45;149838.69;;;10.12;81.52
33422;BME280;19763;55.798;37.782;2023-05-01T06:36:11;149834.84;;;10.11;80.79
33422;BME280;19763;55.798;37.782;2023-05-01T06:38:36;149861.72;;;10.22;80.98
33422;BME280;19763;55.798;37.782;2023-05-01T06:41:05;149870.72;;;10.25;80.31
33422;BME280;19763;55.798;37.782;2023-05-01T06:43:31;149872.00;;;10.26;80.45
33422;BME280;19763;55.798;37.782;2023-05-01T06:45:57;149907.94;;;10.40;79.56
33422;BME280;19763;55.798;37.782;2023-05-01T06:48:24;149904.09;;;10.39;79.08
33422;BME280;19763;55.798;37.782;2023-05-01T06:50:49;149888.66;;;10.32;79.89
33422;BME280;19763;55.798;37.782;2023-05-01T06:53:15;149929.78;;;10.49;78.97
33422;BME280;19763;55.798;37.782;2023-05-01T06:55:40;149923.34;;;10.46;78.43
33422;BME280;19763;55.798;37.782;2023-05-01T06:58:06;149904.09;;;10.39;79.04
33422;BME280;19763;55.798;37.782;2023-05-01T07:00:35;149911.78;;;10.42;78.35
33422;BME280;19763;55.798;37.782;2023-05-01T07:03:00;149902.81;;;10.38;77.80
33422;BME280;19763;55.798;37.782;2023-05-01T07:05:27;149941.31;;;10.53;77.72
33422;BME280;19763;55.798;37.782;2023-05-01T07:07:53;149947.72;;;10.56;77.92
33422;BME280;19763;55.798;37.782;2023-05-01T07:10:19;149951.56;;;10.58;78.47
33422;BME280;19763;55.798;37.782;2023-05-01T07:12:45;149966.94;;;10.64;77.29
33422;BME280;19763;55.798;37.782;2023-05-01T07:15:11;149963.09;;;10.62;76.27
33422;BME280;19763;55.798;37.782;2023-05-01T07:17:39;149979.78;;;10.69;75.70
33422;BME280;19763;55.798;37.782;2023-05-01T07:20:05;149972.06;;;10.66;77.89
33422;BME280;19763;55.798;37.782;2023-05-01T07:22:31;149995.16;;;10.75;76.89
33422;BME280;19763;55.798;37.782;2023-05-01T07:24:57;150028.50;;;10.88;75.30
33422;BME280;19763;55.798;37.782;2023-05-01T07:27:22;150047.75;;;10.96;76.37
33422;BME280;19763;55.798;37.782;2023-05-01T07:29:49;150040.06;;;10.93;75.52
33422;BME280;19763;55.798;37.782;2023-05-01T07:32:15;150059.28;;;11.01;75.13
33422;BME280;19763;55.798;37.782;2023-05-01T07:34:40;150051.59;;;10.98;72.59
33422;BME280;19763;55.798;37.782;2023-05-01T07:37:06;150076.00;;;11.08;72.36
33422;BME280;19763;55.798;37.782;2023-05-01T07:39:32;150033.66;;;10.91;72.91
33422;BME280;19763;55.798;37.782;2023-05-01T07:41:57;150102.91;;;11.18;73.27
33422;BME280;19763;55.798;37.782;2023-05-01T07:44:23;150092.63;;;11.14;72.72
33422;BME280;19763;55.798;37.782;2023-05-01T07:46:48;150078.50;;;11.09;72.93
33422;BME280;19763;55.798;37.782;2023-05-01T07:49:14;150077.25;;;11.08;72.88
33422;BME280;19763;55.798;37.782;2023-05-01T07:51:40;150123.44;;;11.27;73.65
33422;BME280;19763;55.798;37.782;2023-05-01T07:54:06;150097.78;;;11.16;72.14
33422;BME280;19763;55.798;37.782;2023-05-01T07:56:32;150092.63;;;11.14;72.90
33422;BME280;19763;55.798;37.782;2023-05-01T07:58:57;150104.22;;;11.19;71.66
33422;BME280;19763;55.798;37.782;2023-05-01T08:01:23;150172.22;;;11.46;72.29
33422;BME280;19763;55.798;37.782;2023-05-01T08:03:49;150192.75;;;11.54;71.19
33422;BME280;19763;55.798;37.782;2023-05-01T08:06:15;150194.03;;;11.55;70.88
33422;BME280;19763;55.798;37.782;2023-05-01T08:08:40;150199.13;;;11.57;71.14
33422;BME280;19763;55.798;37.782;2023-05-01T08:11:07;150238.97;;;11.73;70.87
33422;BME280;19763;55.798;37.782;2023-05-01T08:13:33;150240.22;;;11.73;69.58
33422;BME280;19763;55.798;37.782;2023-05-01T08:16:02;150236.38;;;11.72;71.51
33422;BME280;19763;55.798;37.782;2023-05-01T08:18:28;150156.78;;;11.40;68.84
33422;BME280;19763;55.798;37.782;2023-05-01T08:20:54;150221.00;;;11.66;68.24
33422;BME280;19763;55.798;37.782;2023-05-01T08:23:20;150253.09;;;11.79;69.25
33422;BME280;19763;55.798;37.782;2023-05-01T08:25:45;150267.22;;;11.84;70.15
33422;BME280;19763;55.798;37.782;2023-05-01T08:28:13;150271.06;;;11.86;69.87
33422;BME280;19763;55.798;37.782;2023-05-01T08:30:39;150296.78;;;11.96;69.26
33422;BME280;19763;55.798;37.782;2023-05-01T08:33:04;150296.78;;;11.96;69.94
33422;BME280;19763;55.798;37.782;2023-05-01T08:35:30;150292.91;;;11.95;69.05
33422;BME280;19763;55.798;37.782;2023-05-01T08:37:55;150305.72;;;12.00;69.19
33422;BME280;19763;55.798;37.782;2023-05-01T08:40:22;150282.59;;;11.90;71.89
33422;BME280;19763;55.798;37.782;2023-05-01T08:42:50;150298.03;;;11.97;69.64
33422;BME280;19763;55.798;37.782;2023-05-01T08:45:17;150299.34;;;11.97;69.15
33422;BME280;19763;55.798;37.782;2023-05-01T08:47:46;150291.59;;;11.94;67.55
33422;BME280;19763;55.798;37.782;2023-05-01T08:50:12;150269.75;;;11.85;68.67
33422;BME280;19763;55.798;37.782;2023-05-01T08:52:42;150303.19;;;11.99;67.90
33422;BME280;19763;55.798;37.782;2023-05-01T08:55:13;150295.50;;;11.96;67.24
33422;BME280;19763;55.798;37.782;2023-05-01T08:57:44;150276.16;;;11.88;66.20
33422;BME280;19763;55.798;37.782;2023-05-01T09:00:15;150281.34;;;11.90;66.27
33422;BME280;19763;55.798;37.782;2023-05-01T09:02:43;150296.78;;;11.96;66.50
33422;BME280;19763;55.798;37.782;2023-05-01T09:05:11;150298.03;;;11.97;66.48
33422;BME280;19763;55.798;37.782;2023-05-01T09:07:38;150267.22;;;11.84;67.27
33422;BME280;19763;55.798;37.782;2023-05-01T09:10:05;150259.47;;;11.81;67.57
33422;BME280;19763;55.798;37.782;2023-05-01T09:12:32;150256.94;;;11.80;67.90
33422;BME280;19763;55.798;37.782;2023-05-01T09:15:01;150256.94;;;11.80;68.53
33422;BME280;19763;55.798;37.782;2023-05-01T09:17:28;150269.75;;;11.85;68.26
33422;BME280;19763;55.798;37.782;2023-05-01T09:19:56;150298.03;;;11.97;68.66
33422;BME280;19763;55.798;37.782;2023-05-01T09:22:21;150285.19;;;11.91;68.96
33422;BME280;19763;55.798;37.782;2023-05-01T09:24:47;150282.59;;;11.90;68.65
33422;BME280;19763;55.798;37.782;2023-05-01T09:27:13;150290.34;;;11.94;68.18
33422;BME280;19763;55.798;37.782;2023-05-01T09:29:43;150304.47;;;11.99;68.03
33422;BME280;19763;55.798;37.782;2023-05-01T09:32:15;150277.44;;;11.88;66.23
33422;BME280;19763;55.798;37.782;2023-05-01T09:34:41;150301.88;;;11.98;67.47
33422;BME280;19763;55.798;37.782;2023-05-01T09:37:10;150259.47;;;11.81;67.85
33422;BME280;19763;55.798;37.782;2023-05-01T09:39:36;150296.78;;;11.96;67.42
33422;BME280;19763;55.798;37.782;2023-05-01T09:42:02;150244.09;;;11.75;66.09
33422;BME280;19763;55.798;37.782;2023-05-01T09:44:28;150259.47;;;11.81;66.71
33422;BME280;19763;55.798;37.782;2023-05-01T09:46:53;150287.72;;;11.92;65.88
33422;BME280;19763;55.798;37.782;2023-05-01T09:49:19;150286.44;;;11.92;65.31
33422;BME280;19763;55.798;37.782;2023-05-01T09:52:15;150273.59;;;11.87;65.23
33422;BME280;19763;55.798;37.782;2023-05-01T09:54:41;150264.63;;;11.83;64.73
33422;BME280;19763;55.798;37.782;2023-05-01T09:57:07;150249.19;;;11.77;63.83
33422;BME280;19763;55.798;37.782;2023-05-01T09:59:34;150240.22;;;11.73;64.33
33422;BME280;19763;55.798;37.782;2023-05-01T10:01:59;150316.00;;;12.04;65.58
33422;BME280;19763;55.798;37.782;2023-05-01T10:04:33;150339.13;;;12.13;65.42
33422;BME280;19763;55.798;37.782;2023-05-01T10:07:10;150362.22;;;12.22;64.50
33422;BME280;19763;55.798;37.782;2023-05-01T10:09:37;150395.66;;;12.36;65.37
33422;BME280;19763;55.798;37.782;2023-05-01T10:12:03;150340.41;;;12.14;63.24
33422;BME280;19763;55.798;37.782;2023-05-01T10:14:29;150330.13;;;12.09;65.17
33422;BME280;19763;55.798;37.782;2023-05-01T10:16:58;150291.59;;;11.94;62.78
33422;BME280;19763;55.798;37.782;2023-05-01T10:19:24;150336.56;;;12.12;63.93
33422;BME280;19763;55.798;37.782;2023-05-01T10:21:50;150240.22;;;11.73;63.43
33422;BME280;19763;55.798;37.782;2023-05-01T10:24:16;150246.66;;;11.76;64.43
33422;BME280;19763;55.798;37.782;2023-05-01T10:26:42;150323.69;;;12.07;64.55
33422;BME280;19763;55.798;37.782;2023-05-01T10:29:09;150355.81;;;12.20;63.99
33422;BME280;19763;55.798;37.782;2023-05-01T10:31:36;150367.38;;;12.24;63.70
33422;BME280;19763;55.798;37.782;2023-05-01T10:34:02;150349.41;;;12.17;64.14
33422;BME280;19763;55.798;37.782;2023-05-01T10:36:39;150349.41;;;12.17;62.69
33422;BME280;19763;55.798;37.782;2023-05-01T10:39:33;150327.59;;;12.08;63.73
33422;BME280;19763;55.798;37.782;2023-05-01T10:44:29;150295.50;;;11.96;64.62
33422;BME280;19763;55.798;37.782;2023-05-01T10:46:55;150308.31;;;12.01;64.91
33422;BME280;19763;55.798;37.782;2023-05-01T10:49:21;150296.78;;;11.96;64.82
33422;BME280;19763;55.798;37.782;2023-05-01T10:52:00;150169.63;;;11.45;65.64
33422;BME280;19763;55.798;37.782;2023-05-01T10:54:26;150146.56;;;11.36;65.68
33422;BME280;19763;55.798;37.782;2023-05-01T10:56:54;150105.47;;;11.19;66.32
33422;BME280;19763;55.798;37.782;2023-05-01T10:59:20;150137.56;;;11.32;66.73
33422;BME280;19763;55.798;37.782;2023-05-01T11:01:46;150049.03;;;10.97;68.98
33422;BME280;19763;55.798;37.782;2023-05-01T11:04:45;150010.53;;;10.81;68.42
33422;BME280;19763;55.798;37.782;2023-05-01T11:07:13;150020.81;;;10.85;69.42
33422;BME280;19763;55.798;37.782;2023-05-01T11:09:43;149977.22;;;10.68;69.05
33422;BME280;19763;55.798;37.782;2023-05-01T11:13:11;149927.19;;;10.48;69.91
33422;BME280;19763;55.798;37.782;2023-05-01T11:15:06;149918.19;;;10.44;69.37
33422;BME280;19763;55.798;37.782;2023-05-01T11:22:36;149766.91;;;9.83;70.24
33422;BME280;19763;55.798;37.782;2023-05-01T11:25:03;149754.06;;;9.78;70.46
33422;BME280;19763;55.798;37.782;2023-05-01T11:27:29;149723.28;;;9.66;70.84
33422;BME280;19763;55.798;37.782;2023-05-01T11:29:57;149705.34;;;9.59;71.08
33422;BME280;19763;55.798;37.782;2023-05-01T11:32:26;149706.66;;;9.59;70.91
33422;BME280;19763;55.798;37.782;2023-05-01T11:34:52;149679.75;;;9.48;70.91
33422;BME280;19763;55.798;37.782;2023-05-01T11:37:19;149700.25;;;9.57;71.76
33422;BME280;19763;55.798;37.782;2023-05-01T11:39:49;149711.78;;;9.61;71.63
33422;BME280;19763;55.798;37.782;2023-05-01T11:42:19;149654.13;;;9.38;72.11
33422;BME280;19763;55.798;37.782;2023-05-01T11:45:07;149670.78;;;9.45;74.05
33422;BME280;19763;55.798;37.782;2023-05-01T11:47:35;149722.03;;;9.65;72.96
33422;BME280;19763;55.798;37.782;2023-05-01T11:50:01;149741.22;;;9.73;72.37
33422;BME280;19763;55.798;37.782;2023-05-01T11:52:27;149733.56;;;9.70;72.02
33422;BME280;19763;55.798;37.782;2023-05-01T11:54:53;149722.03;;;9.65;72.84
33422;BME280;19763;55.798;37.782;2023-05-01T11:57:19;149688.72;;;9.52;72.27
33422;BME280;19763;55.798;37.782;2023-05-01T11:59:48;149688.72;;;9.52;72.25
33422;BME280;19763;55.798;37.782;2023-05-01T12:02:19;149728.44;;;9.68;73.40
33422;BME280;19763;55.798;37.782;2023-05-01T12:04:45;149677.16;;;9.47;71.94
33422;BME280;19763;55.798;37.782;2023-05-01T12:07:23;149690.00;;;9.53;71.27
33422;BME280;19763;55.798;37.782;2023-05-01T12:09:50;149623.34;;;9.26;71.05
33422;BME280;19763;55.798;37.782;2023-05-01T12:12:16;149642.59;;;9.33;71.80
33422;BME280;19763;55.798;37.782;2023-05-01T12:14:42;149648.97;;;9.36;73.65
33422;BME280;19763;55.798;37.782;2023-05-01T12:17:08;149651.53;;;9.37;74.29
33422;BME280;19763;55.798;37.782;2023-05-01T12:19:46;149622.09;;;9.25;71.95
33422;BME280;19763;55.798;37.782;2023-05-01T12:22:14;149652.81;;;9.38;72.63
33422;BME280;19763;55.798;37.782;2023-05-01T12:24:50;149656.69;;;9.39;73.55
33422;BME280;19763;55.798;37.782;2023-05-01T12:27:19;149597.75;;;9.15;72.86
33422;BME280;19763;55.798;37.782;2023-05-01T12:29:45;149618.25;;;9.24;73.84
33422;BME280;19763;55.798;37.782;2023-05-01T12:32:13;149600.31;;;9.17;72.21
33422;BME280;19763;55.798;37.782;2023-05-01T12:34:39;149595.16;;;9.14;72.86
33422;BME280;19763;55.798;37.782;2023-05-01T12:37:06;149531.13;;;8.89;73.17
33422;BME280;19763;55.798;37.782;2023-05-01T12:39:39;149560.56;;;9.01;73.97
33422;BME280;19763;55.798;37.782;2023-05-01T12:42:13;149559.31;;;9.00;74.72
33422;BME280;19763;55.798;37.782;2023-05-01T12:44:39;149567.00;;;9.03;75.60
33422;BME280;19763;55.798;37.782;2023-05-01T12:47:07;149579.81;;;9.08;74.84
33422;BME280;19763;55.798;37.782;2023-05-01T12:49:34;149497.84;;;8.75;74.81
33422;BME280;19763;55.798;37.782;2023-05-01T12:52:05;149502.94;;;8.77;76.02
33422;BME280;19763;55.798;37.782;2023-05-01T12:54:34;149469.69;;;8.64;75.51
33422;BME280;19763;55.798;37.782;2023-05-01T12:59:35;149432.50;;;8.49;76.49
33422;BME280;19763;55.798;37.782;2023-05-01T13:02:12;149419.69;;;8.44;75.04
33422;BME280;19763;55.798;37.782;2023-05-01T13:04:40;149454.28;;;8.58;74.11
33422;BME280;19763;55.798;37.782;2023-05-01T13:07:15;149454.28;;;8.58;75.96
33422;BME280;19763;55.798;37.782;2023-05-01T13:09:56;149392.78;;;8.33;76.93
33422;BME280;19763;55.798;37.782;2023-05-01T13:12:23;149472.25;;;8.65;75.79